createdAt,value
2023-05-20T00:00:31.480Z,34.75
2023-05-20T00:01:31.452Z,34.73
2023-05-20T00:02:31.561Z,34.73
2023-05-20T00:03:31.735Z,34.72
2023-05-20T00:04:31.475Z,34.70
2023-05-20T00:05:31.473Z,34.68
2023-05-20T00:06:31.462Z,34.74
2023-05-20T00:07:31.453Z,34.70
2023-05-20T00:08:31.591Z,34.69
2023-05-20T00:09:31.392Z,34.73
2023-05-20T00:10:31.438Z,34.74
2023-05-20T00:11:31.438Z,34.74
2023-05-20T00:12:31.416Z,34.73
2023-05-20T00:13:31.616Z,34.73
2023-05-20T00:14:31.379Z,34.74
2023-05-20T00:15:31.416Z,34.74
2023-05-20T00:16:31.398Z,34.70
2023-05-20T00:17:31.452Z,34.70
2023-05-20T00:18:31.638Z,34.73
2023-05-20T00:19:31.458Z,34.74
2023-05-20T00:20:31.339Z,34.78
2023-05-20T00:21:31.335Z,34.73
2023-05-20T00:22:31.301Z,34.76
2023-05-20T00:23:31.313Z,34.70
2023-05-20T00:24:31.363Z,34.73
2023-05-20T00:25:31.399Z,34.74
2023-05-20T00:26:31.400Z,34.74
2023-05-20T00:27:31.283Z,34.68
2023-05-20T00:28:31.296Z,34.76
2023-05-20T00:29:31.297Z,34.74
2023-05-20T00:30:31.258Z,34.72
2023-05-20T00:31:31.326Z,34.73
2023-05-20T00:32:31.324Z,34.73
2023-05-20T00:33:31.275Z,34.75
2023-05-20T00:34:31.243Z,34.75
2023-05-20T00:35:31.258Z,34.69
2023-05-20T00:36:31.262Z,34.73
2023-05-20T00:37:31.263Z,34.70
2023-05-20T00:38:31.353Z,34.75
2023-05-20T00:39:31.329Z,34.71
2023-05-20T00:40:31.330Z,34.71
2023-05-20T00:41:31.324Z,34.75
2023-05-20T00:42:31.394Z,34.76
2023-05-20T00:43:31.659Z,34.74
2023-05-20T00:44:31.459Z,34.72
2023-05-20T00:45:31.508Z,34.75
2023-05-20T00:46:31.498Z,34.73
2023-05-20T00:47:31.507Z,34.70
2023-05-20T00:48:31.638Z,34.78
2023-05-20T00:49:31.493Z,34.74
2023-05-20T00:50:31.552Z,34.78
2023-05-20T00:51:31.579Z,34.75
2023-05-20T00:52:31.559Z,34.78
2023-05-20T00:53:32.094Z,34.75
2023-05-20T00:54:31.671Z,34.76
2023-05-20T00:55:31.923Z,34.74
2023-05-20T00:56:31.749Z,34.75
2023-05-20T00:57:31.747Z,34.73
2023-05-20T00:58:31.808Z,34.75
2023-05-20T00:59:31.815Z,34.71
2023-05-20T01:00:31.778Z,34.69
2023-05-20T01:01:31.909Z,34.77
2023-05-20T01:02:31.930Z,34.73
2023-05-20T01:03:32.231Z,34.75
2023-05-20T01:04:31.875Z,34.76
2023-05-20T01:05:31.940Z,34.70
2023-05-20T01:06:31.880Z,34.75
2023-05-20T01:07:31.960Z,34.73
2023-05-20T01:08:31.958Z,34.73
2023-05-20T01:09:31.917Z,34.73
2023-05-20T01:10:32.014Z,34.74
2023-05-20T01:11:31.984Z,34.75
2023-05-20T01:12:32.017Z,34.75
2023-05-20T01:13:32.052Z,34.71
2023-05-20T01:14:32.045Z,34.74
2023-05-20T01:15:32.239Z,34.78
2023-05-20T01:16:32.136Z,34.73
2023-05-20T01:17:32.081Z,34.71
2023-05-20T01:18:32.080Z,34.69
2023-05-20T01:19:32.097Z,34.76
2023-05-20T01:20:32.097Z,34.75
2023-05-20T01:21:32.156Z,34.70
2023-05-20T01:22:32.236Z,34.75
2023-05-20T01:23:32.184Z,34.75
2023-05-20T01:24:32.132Z,34.75
2023-05-20T01:25:32.262Z,34.76
2023-05-20T01:26:32.193Z,34.75
2023-05-20T01:27:32.153Z,34.74
2023-05-20T01:28:32.641Z,34.74
2023-05-20T01:29:32.224Z,34.74
2023-05-20T01:30:32.209Z,34.75
2023-05-20T01:31:32.199Z,34.77
2023-05-20T01:32:32.274Z,34.76
2023-05-20T01:33:32.269Z,34.72
2023-05-20T01:34:32.249Z,34.75
2023-05-20T01:35:32.439Z,34.77
2023-05-20T01:36:32.289Z,34.77
2023-05-20T01:37:32.315Z,34.74
2023-05-20T01:38:32.315Z,34.75
2023-05-20T01:39:32.337Z,34.76
2023-05-20T01:40:32.333Z,34.77
2023-05-20T01:41:32.324Z,34.71
2023-05-20T01:42:32.337Z,34.75
2023-05-20T01:43:32.357Z,34.71
2023-05-20T01:44:32.380Z,34.79
2023-05-20T01:45:32.628Z,34.77
2023-05-20T01:46:32.483Z,34.77
2023-05-20T01:47:32.496Z,34.74
2023-05-20T01:48:32.550Z,34.74
2023-05-20T01:49:32.568Z,34.75
2023-05-20T01:50:32.577Z,34.74
2023-05-20T01:51:32.567Z,34.76
2023-05-20T01:52:32.575Z,34.77
2023-05-20T01:53:32.648Z,34.76
2023-05-20T01:54:32.644Z,34.72
2023-05-20T01:55:32.735Z,34.76
2023-05-20T01:56:32.645Z,34.76
2023-05-20T01:57:32.652Z,34.77
2023-05-20T01:58:32.666Z,34.74
2023-05-20T01:59:32.660Z,34.76
2023-05-20T02:00:32.771Z,34.75
2023-05-20T02:01:32.748Z,34.76
2023-05-20T02:02:32.828Z,34.76
2023-05-20T02:03:32.762Z,34.73
2023-05-20T02:04:32.774Z,34.76
2023-05-20T02:05:32.905Z,34.72
2023-05-20T02:06:32.813Z,34.69
2023-05-20T02:07:32.821Z,34.78
2023-05-20T02:08:32.800Z,34.76
2023-05-20T02:09:32.838Z,34.76
2023-05-20T02:10:32.812Z,34.75
2023-05-20T02:11:32.815Z,34.75
2023-05-20T02:12:32.813Z,34.73
2023-05-20T02:13:32.864Z,34.73
2023-05-20T02:14:32.832Z,34.75
2023-05-20T02:15:32.957Z,34.75
2023-05-20T02:16:32.900Z,34.72
2023-05-20T02:17:32.888Z,34.75
2023-05-20T02:18:32.861Z,34.77
2023-05-20T02:19:32.930Z,34.76
2023-05-20T02:20:32.911Z,34.76
2023-05-20T02:21:32.896Z,34.74
2023-05-20T02:22:32.896Z,34.73
2023-05-20T02:23:32.902Z,34.74
2023-05-20T02:24:32.909Z,34.76
2023-05-20T02:25:33.125Z,34.72
2023-05-20T02:26:32.900Z,34.76
2023-05-20T02:27:32.895Z,34.72
2023-05-20T02:28:32.933Z,34.72
2023-05-20T02:29:32.945Z,34.75
2023-05-20T02:30:32.889Z,34.75
2023-05-20T02:31:32.901Z,34.75
2023-05-20T02:32:32.967Z,34.74
2023-05-20T02:33:32.943Z,34.77
2023-05-20T02:34:32.957Z,34.76
2023-05-20T02:35:33.111Z,34.77
2023-05-20T02:36:32.902Z,34.76
2023-05-20T02:37:32.852Z,34.72
2023-05-20T02:38:32.913Z,34.73
2023-05-20T02:39:32.907Z,34.77
2023-05-20T02:40:32.843Z,34.78
2023-05-20T02:41:32.852Z,34.77
2023-05-20T02:42:32.870Z,34.76
2023-05-20T02:43:32.840Z,34.76
2023-05-20T02:44:32.824Z,34.75
2023-05-20T02:45:32.861Z,34.75
2023-05-20T02:46:32.884Z,34.77
2023-05-20T02:47:33.001Z,34.76
2023-05-20T02:48:32.899Z,34.73
2023-05-20T02:49:32.909Z,34.75
2023-05-20T02:50:32.871Z,34.75
2023-05-20T02:51:32.921Z,34.77
2023-05-20T02:52:32.945Z,34.72
2023-05-20T02:53:32.905Z,34.75
2023-05-20T02:54:32.877Z,34.76
2023-05-20T02:55:33.189Z,34.76
2023-05-20T02:56:32.864Z,34.71
2023-05-20T02:57:32.864Z,34.79
2023-05-20T02:58:32.851Z,34.77
2023-05-20T02:59:32.840Z,34.73
2023-05-20T03:00:32.869Z,34.78
2023-05-20T03:01:32.902Z,34.76
2023-05-20T03:02:32.990Z,34.75
2023-05-20T03:03:32.832Z,34.77
2023-05-20T03:04:32.911Z,34.81
2023-05-20T03:05:33.031Z,34.75
2023-05-20T03:06:32.835Z,34.73
2023-05-20T03:07:32.864Z,34.78
2023-05-20T03:08:32.899Z,34.80
2023-05-20T03:09:32.824Z,34.74
2023-05-20T03:10:32.857Z,34.73
2023-05-20T03:11:32.867Z,34.73
2023-05-20T03:12:32.864Z,34.72
2023-05-20T03:13:32.871Z,34.78
2023-05-20T03:14:32.814Z,34.73
2023-05-20T03:15:33.030Z,34.77
2023-05-20T03:16:32.958Z,34.72
2023-05-20T03:17:32.837Z,34.77
2023-05-20T03:18:32.874Z,34.73
2023-05-20T03:19:32.847Z,34.75
2023-05-20T03:20:32.821Z,34.74
2023-05-20T03:21:32.821Z,34.75
2023-05-20T03:22:32.818Z,34.75
2023-05-20T03:23:32.835Z,34.73
2023-05-20T03:24:32.838Z,34.77
2023-05-20T03:25:32.996Z,34.75
2023-05-20T03:26:32.839Z,34.73
2023-05-20T03:27:32.871Z,34.76
2023-05-20T03:28:33.169Z,34.76
2023-05-20T03:29:32.798Z,34.74
2023-05-20T03:30:32.794Z,34.73
2023-05-20T03:31:32.918Z,34.78
2023-05-20T03:32:32.808Z,34.78
2023-05-20T03:33:32.860Z,34.76
2023-05-20T03:34:32.836Z,34.77
2023-05-20T03:35:33.021Z,34.76
2023-05-20T03:36:32.782Z,34.77
2023-05-20T03:37:32.789Z,34.79
2023-05-20T03:38:32.853Z,34.77
2023-05-20T03:39:32.853Z,34.72
2023-05-20T03:40:32.902Z,34.77
2023-05-20T03:41:32.880Z,34.76
2023-05-20T03:42:32.863Z,34.78
2023-05-20T03:43:32.871Z,34.72
2023-05-20T03:44:32.941Z,34.73
2023-05-20T03:45:32.986Z,34.73
2023-05-20T03:46:32.884Z,34.74
2023-05-20T03:47:32.868Z,34.75
2023-05-20T03:48:32.874Z,34.72
2023-05-20T03:49:32.850Z,34.77
2023-05-20T03:50:32.824Z,34.73
2023-05-20T03:51:32.897Z,34.75
2023-05-20T03:52:32.828Z,34.78
2023-05-20T03:53:32.827Z,34.75
2023-05-20T03:54:32.819Z,34.75
2023-05-20T03:55:32.953Z,34.78
2023-05-20T03:56:32.809Z,34.71
2023-05-20T03:57:32.781Z,34.75
2023-05-20T03:58:32.835Z,34.72
2023-05-20T03:59:32.803Z,34.77
2023-05-20T04:00:32.804Z,34.75
2023-05-20T04:01:32.844Z,34.77
2023-05-20T04:02:32.826Z,34.79
2023-05-20T04:03:32.899Z,34.73
2023-05-20T04:04:32.788Z,34.73
2023-05-20T04:05:32.841Z,34.73
2023-05-20T04:06:32.781Z,34.75
2023-05-20T04:07:32.749Z,34.77
2023-05-20T04:08:32.744Z,34.77
2023-05-20T04:09:32.759Z,34.74
2023-05-20T04:10:32.765Z,34.75
2023-05-20T04:11:32.726Z,34.77
2023-05-20T04:12:32.772Z,34.73
2023-05-20T04:13:32.739Z,34.75
2023-05-20T04:14:33.868Z,34.77
2023-05-20T04:15:32.997Z,34.77
2023-05-20T04:16:32.813Z,34.74
2023-05-20T04:17:32.768Z,34.77
2023-05-20T04:18:32.774Z,34.71
2023-05-20T04:19:32.725Z,34.73
2023-05-20T04:20:32.728Z,34.75
2023-05-20T04:21:32.765Z,34.78
2023-05-20T04:22:32.746Z,34.75
2023-05-20T04:23:32.708Z,34.77
2023-05-20T04:24:32.728Z,34.75
2023-05-20T04:25:32.737Z,34.75
2023-05-20T04:26:32.740Z,34.73
2023-05-20T04:27:32.739Z,34.77
2023-05-20T04:28:32.749Z,34.77
2023-05-20T04:29:32.748Z,34.73
2023-05-20T04:30:32.744Z,34.78
2023-05-20T04:31:32.780Z,34.73
2023-05-20T04:32:32.832Z,34.74
2023-05-20T04:33:32.756Z,34.71
2023-05-20T04:34:32.731Z,34.76
2023-05-20T04:35:32.858Z,34.75
2023-05-20T04:36:32.716Z,34.73
2023-05-20T04:37:32.694Z,34.77
2023-05-20T04:38:32.707Z,34.73
2023-05-20T04:39:32.683Z,34.73
2023-05-20T04:40:32.706Z,34.77
2023-05-20T04:41:32.742Z,34.76
2023-05-20T04:42:32.690Z,34.76
2023-05-20T04:43:32.681Z,34.75
2023-05-20T04:44:32.690Z,34.72
2023-05-20T04:45:32.807Z,34.73
2023-05-20T04:46:32.679Z,34.72
2023-05-20T04:47:32.656Z,34.73
2023-05-20T04:48:32.672Z,34.74
2023-05-20T04:49:32.689Z,34.76
2023-05-20T04:50:32.667Z,34.72
2023-05-20T04:51:32.666Z,34.73
2023-05-20T04:52:32.634Z,34.68
2023-05-20T04:53:32.649Z,34.72
2023-05-20T04:54:32.622Z,34.78
2023-05-20T04:55:32.905Z,34.76
2023-05-20T04:56:32.668Z,34.73
2023-05-20T04:57:32.636Z,34.75
2023-05-20T04:58:32.647Z,34.74
2023-05-20T04:59:32.646Z,34.73
2023-05-20T05:00:32.636Z,34.75
2023-05-20T05:01:32.672Z,34.75
2023-05-20T05:02:32.629Z,34.74
2023-05-20T05:03:32.615Z,34.76
2023-05-20T05:04:32.700Z,34.70
2023-05-20T05:05:32.768Z,34.76
2023-05-20T05:06:32.631Z,34.71
2023-05-20T05:07:32.618Z,34.70
2023-05-20T05:08:32.608Z,34.74
2023-05-20T05:09:34.890Z,34.75
2023-05-20T05:10:32.631Z,34.72
2023-05-20T05:11:32.573Z,34.71
2023-05-20T05:12:32.579Z,34.71
2023-05-20T05:13:32.696Z,34.71
2023-05-20T05:14:32.589Z,34.73
2023-05-20T05:15:32.797Z,34.71
2023-05-20T05:16:32.673Z,34.72
2023-05-20T05:17:32.608Z,34.74
2023-05-20T05:18:32.580Z,34.72
2023-05-20T05:19:32.591Z,34.74
2023-05-20T05:20:32.584Z,34.71
2023-05-20T05:21:32.548Z,34.71
2023-05-20T05:22:32.530Z,34.74
2023-05-20T05:23:32.617Z,34.72
2023-05-20T05:24:32.548Z,34.72
2023-05-20T05:25:32.764Z,34.72
2023-05-20T05:26:32.552Z,34.71
2023-05-20T05:27:32.558Z,34.74
2023-05-20T05:28:32.589Z,34.74
2023-05-20T05:29:32.556Z,34.70
2023-05-20T05:30:32.557Z,34.70
2023-05-20T05:31:32.614Z,34.72
2023-05-20T05:32:32.713Z,34.74
2023-05-20T05:33:32.721Z,34.69
2023-05-20T05:34:32.617Z,34.70
2023-05-20T05:35:32.891Z,34.68
2023-05-20T05:36:32.626Z,34.69
2023-05-20T05:37:32.601Z,34.70
2023-05-20T05:38:32.620Z,34.72
2023-05-20T05:39:32.626Z,34.71
2023-05-20T05:40:32.632Z,34.74
2023-05-20T05:41:32.663Z,34.73
2023-05-20T05:42:32.684Z,34.71
2023-05-20T05:43:32.678Z,34.73
2023-05-20T05:44:32.751Z,34.70
2023-05-20T05:45:32.878Z,34.70
2023-05-20T05:46:32.720Z,34.69
2023-05-20T05:47:32.990Z,34.71
2023-05-20T05:48:32.713Z,34.68
2023-05-20T05:49:32.691Z,34.73
2023-05-20T05:50:32.693Z,34.68
2023-05-20T05:51:32.723Z,34.70
2023-05-20T05:52:32.734Z,34.70
2023-05-20T05:53:32.722Z,34.73
2023-05-20T05:54:32.730Z,34.71
2023-05-20T05:55:32.860Z,34.68
2023-05-20T05:56:32.771Z,34.72
2023-05-20T05:57:32.793Z,34.70
2023-05-20T05:58:32.720Z,34.63
2023-05-20T05:59:32.781Z,34.65
2023-05-20T06:00:32.745Z,34.72
2023-05-20T06:01:32.746Z,34.69
2023-05-20T06:02:32.804Z,34.69
2023-05-20T06:03:32.839Z,34.67
2023-05-20T06:04:32.814Z,34.70
2023-05-20T06:05:33.018Z,34.70
2023-05-20T06:06:32.790Z,34.69
2023-05-20T06:07:32.803Z,34.73
2023-05-20T06:08:32.792Z,34.69
2023-05-20T06:09:32.800Z,34.69
2023-05-20T06:10:32.803Z,34.70
2023-05-20T06:11:32.811Z,34.69
2023-05-20T06:12:32.848Z,34.71
2023-05-20T06:13:32.865Z,34.65
2023-05-20T06:14:32.857Z,34.69
2023-05-20T06:15:33.025Z,34.70
2023-05-20T06:16:32.953Z,34.67
2023-05-20T06:17:32.870Z,34.69
2023-05-20T06:18:32.822Z,34.68
2023-05-20T06:19:32.923Z,34.68
2023-05-20T06:20:32.885Z,34.68
2023-05-20T06:21:32.873Z,34.68
2023-05-20T06:22:32.828Z,34.69
2023-05-20T06:23:32.834Z,34.68
2023-05-20T06:24:32.851Z,34.68
2023-05-20T06:25:32.974Z,34.70
2023-05-20T06:26:32.882Z,34.70
2023-05-20T06:27:32.834Z,34.65
2023-05-20T06:28:32.875Z,34.64
2023-05-20T06:29:32.827Z,34.68
2023-05-20T06:30:32.893Z,34.69
2023-05-20T06:31:32.972Z,34.67
2023-05-20T06:32:32.937Z,34.69
2023-05-20T06:33:32.899Z,34.69
2023-05-20T06:34:32.901Z,34.70
2023-05-20T06:35:33.107Z,34.67
2023-05-20T06:36:33.751Z,34.67
2023-05-20T06:37:32.981Z,34.65
2023-05-20T06:38:32.943Z,34.65
2023-05-20T06:39:32.944Z,34.67
2023-05-20T06:40:32.909Z,34.65
2023-05-20T06:41:32.971Z,34.65
2023-05-20T06:42:32.969Z,34.63
2023-05-20T06:43:33.249Z,34.67
2023-05-20T06:44:33.045Z,34.67
2023-05-20T06:45:33.083Z,34.65
2023-05-20T06:46:33.095Z,34.63
2023-05-20T06:47:33.091Z,34.64
2023-05-20T06:48:33.080Z,34.67
2023-05-20T06:49:33.014Z,34.66
2023-05-20T06:50:33.072Z,34.65
2023-05-20T06:51:33.123Z,34.66
2023-05-20T06:52:33.115Z,34.63
2023-05-20T06:53:33.144Z,34.66
2023-05-20T06:54:33.110Z,34.65
2023-05-20T06:55:33.554Z,34.63
2023-05-20T06:56:33.211Z,34.63
2023-05-20T06:57:33.196Z,34.64
2023-05-20T06:58:33.274Z,34.64
2023-05-20T06:59:33.277Z,34.60
2023-05-20T07:00:33.344Z,34.63
2023-05-20T07:01:33.374Z,34.61
2023-05-20T07:02:33.459Z,34.61
2023-05-20T07:03:33.508Z,34.65
2023-05-20T07:04:33.527Z,34.61
2023-05-20T07:05:33.679Z,34.64
2023-05-20T07:06:33.668Z,34.63
2023-05-20T07:07:33.649Z,34.60
2023-05-20T07:08:33.729Z,34.58
2023-05-20T07:09:33.776Z,34.59
2023-05-20T07:10:34.006Z,34.64
2023-05-20T07:11:33.874Z,34.59
2023-05-20T07:12:35.551Z,34.58
2023-05-20T07:13:33.894Z,34.60
2023-05-20T07:14:33.901Z,34.58
2023-05-20T07:15:34.109Z,34.62
2023-05-20T07:16:33.909Z,34.67
2023-05-20T07:17:33.945Z,34.59
2023-05-20T07:18:33.866Z,34.57
2023-05-20T07:19:33.915Z,34.57
2023-05-20T07:20:33.827Z,34.59
2023-05-20T07:21:33.947Z,34.56
2023-05-20T07:22:33.862Z,34.61
2023-05-20T07:23:33.867Z,34.58
2023-05-20T07:24:33.840Z,34.59
2023-05-20T07:25:34.062Z,34.63
2023-05-20T07:26:33.805Z,34.62
2023-05-20T07:27:33.824Z,34.57
2023-05-20T07:28:33.824Z,34.57
2023-05-20T07:29:33.798Z,34.58
2023-05-20T07:30:33.796Z,34.56
2023-05-20T07:31:33.823Z,34.63
2023-05-20T07:32:33.784Z,34.60
2023-05-20T07:33:33.764Z,34.56
2023-05-20T07:34:33.792Z,34.56
2023-05-20T07:35:33.990Z,34.57
2023-05-20T07:36:33.741Z,34.56
2023-05-20T07:37:33.768Z,34.56
2023-05-20T07:38:33.755Z,34.55
2023-05-20T07:39:33.694Z,34.59
2023-05-20T07:40:33.992Z,34.55
2023-05-20T07:41:33.737Z,34.55
2023-05-20T07:42:33.671Z,34.55
2023-05-20T07:43:33.689Z,34.57
2023-05-20T07:44:33.697Z,34.54
2023-05-20T07:45:33.870Z,34.56
2023-05-20T07:46:33.783Z,34.57
2023-05-20T07:47:33.776Z,34.52
2023-05-20T07:48:33.784Z,34.56
2023-05-20T07:49:33.879Z,34.54
2023-05-20T07:50:33.950Z,34.54
2023-05-20T07:51:34.028Z,34.54
2023-05-20T07:52:44.025Z,34.56
2023-05-20T07:53:35.066Z,34.53
2023-05-20T07:54:34.055Z,34.60
2023-05-20T07:55:34.222Z,34.57
2023-05-20T07:56:34.024Z,34.55
2023-05-20T07:57:34.022Z,34.55
2023-05-20T07:58:34.289Z,34.55
2023-05-20T07:59:34.045Z,34.55
2023-05-20T08:00:34.005Z,34.55
2023-05-20T08:01:34.089Z,34.59
2023-05-20T08:02:34.203Z,34.54
2023-05-20T08:03:34.319Z,34.56
2023-05-20T08:04:34.381Z,34.55
2023-05-20T08:05:34.566Z,34.52
2023-05-20T08:06:34.383Z,34.57
2023-05-20T08:07:34.463Z,34.53
2023-05-20T08:08:34.543Z,34.54
2023-05-20T08:09:34.557Z,34.54
2023-05-20T08:10:34.633Z,34.54
2023-05-20T08:11:34.678Z,34.55
2023-05-20T08:12:34.748Z,34.53
2023-05-20T08:13:34.801Z,34.52
2023-05-20T08:14:34.860Z,34.49
2023-05-20T08:15:35.096Z,34.52
2023-05-20T08:16:34.998Z,34.54
2023-05-20T08:17:35.036Z,34.54
2023-05-20T08:18:35.120Z,34.54
2023-05-20T08:19:35.226Z,34.52
2023-05-20T08:20:35.230Z,34.54
2023-05-20T08:21:35.290Z,34.51
2023-05-20T08:22:35.330Z,34.52
2023-05-20T08:23:37.326Z,34.52
2023-05-20T08:24:35.406Z,34.54
2023-05-20T08:25:35.602Z,34.49
2023-05-20T08:26:35.395Z,34.49
2023-05-20T08:27:35.389Z,34.48
2023-05-20T08:28:35.386Z,34.56
2023-05-20T08:29:35.339Z,34.52
2023-05-20T08:30:35.395Z,34.50
2023-05-20T08:31:35.426Z,34.52
2023-05-20T08:32:35.365Z,34.51
2023-05-20T08:33:35.329Z,34.49
2023-05-20T08:34:35.311Z,34.51
2023-05-20T08:35:35.551Z,34.51
2023-05-20T08:36:35.348Z,34.47
2023-05-20T08:37:35.325Z,34.51
2023-05-20T08:38:35.384Z,34.50
2023-05-20T08:39:35.266Z,34.51
2023-05-20T08:40:35.336Z,34.50
2023-05-20T08:41:35.307Z,34.51
2023-05-20T08:42:35.276Z,34.46
2023-05-20T08:43:35.303Z,34.48
2023-05-20T08:44:35.341Z,34.45
2023-05-20T08:45:35.621Z,34.45
2023-05-20T08:46:35.470Z,34.48
2023-05-20T08:47:35.583Z,34.44
2023-05-20T08:48:35.528Z,34.44
2023-05-20T08:49:35.554Z,34.49
2023-05-20T08:50:35.615Z,34.48
2023-05-20T08:51:35.673Z,34.47
2023-05-20T08:52:35.777Z,34.44
2023-05-20T08:53:35.784Z,34.44
2023-05-20T08:54:35.820Z,34.43
2023-05-20T08:55:35.945Z,34.47
2023-05-20T08:56:35.908Z,34.44
2023-05-20T08:57:36.019Z,34.46
2023-05-20T08:58:36.053Z,34.46
2023-05-20T08:59:36.055Z,34.44
2023-05-20T09:00:36.086Z,34.46
2023-05-20T09:01:36.164Z,34.43
2023-05-20T09:02:36.300Z,34.43
2023-05-20T09:03:36.293Z,34.47
2023-05-20T09:04:36.344Z,34.45
2023-05-20T09:05:36.524Z,34.43
2023-05-20T09:06:36.437Z,34.42
2023-05-20T09:07:36.466Z,34.45
2023-05-20T09:08:36.544Z,34.43
2023-05-20T09:09:36.555Z,34.44
2023-05-20T09:10:36.627Z,34.42
2023-05-20T09:11:36.654Z,34.45
2023-05-20T09:12:36.685Z,34.47
2023-05-20T09:13:36.724Z,34.45
2023-05-20T09:14:36.795Z,34.47
2023-05-20T09:15:36.980Z,34.42
2023-05-20T09:16:36.882Z,34.45
2023-05-20T09:17:36.954Z,34.46
2023-05-20T09:18:36.985Z,34.45
2023-05-20T09:19:37.136Z,34.42
2023-05-20T09:20:37.061Z,34.44
2023-05-20T09:21:37.090Z,34.38
2023-05-20T09:22:37.104Z,34.41
2023-05-20T09:23:37.161Z,34.40
2023-05-20T09:24:37.224Z,34.45
2023-05-20T09:25:37.380Z,34.41
2023-05-20T09:26:37.279Z,34.43
2023-05-20T09:27:37.310Z,34.43
2023-05-20T09:28:37.401Z,34.40
2023-05-20T09:29:37.411Z,34.39
2023-05-20T09:30:37.477Z,34.43
2023-05-20T09:31:37.504Z,34.39
2023-05-20T09:32:37.538Z,34.38
2023-05-20T09:33:37.593Z,34.42
2023-05-20T09:34:37.603Z,34.41
2023-05-20T09:35:37.720Z,34.39
2023-05-20T09:36:37.658Z,34.41
2023-05-20T09:37:37.730Z,34.42
2023-05-20T09:38:37.839Z,34.43
2023-05-20T09:39:37.773Z,34.37
2023-05-20T09:40:38.011Z,34.43
2023-05-20T09:41:37.813Z,34.42
2023-05-20T09:42:37.835Z,34.40
2023-05-20T09:43:37.898Z,34.35
2023-05-20T09:44:37.924Z,34.42
2023-05-20T09:45:38.018Z,34.41
2023-05-20T09:46:38.068Z,34.37
2023-05-20T09:47:38.046Z,34.40
2023-05-20T09:48:38.390Z,34.41
2023-05-20T09:49:38.122Z,34.40
2023-05-20T09:50:38.157Z,34.38
2023-05-20T09:51:38.163Z,34.41
2023-05-20T09:52:38.197Z,34.42
2023-05-20T09:53:38.255Z,34.37
2023-05-20T09:54:38.251Z,34.38
2023-05-20T09:55:38.356Z,34.40
2023-05-20T09:56:38.367Z,34.38
2023-05-20T09:57:38.352Z,34.38
2023-05-20T09:58:38.839Z,34.38
2023-05-20T09:59:38.433Z,34.38
2023-05-20T10:00:38.509Z,34.40
2023-05-20T10:01:38.576Z,34.39
2023-05-20T10:02:38.606Z,34.38
2023-05-20T10:03:39.312Z,34.33
2023-05-20T10:04:38.600Z,34.37
2023-05-20T10:05:38.623Z,34.38
2023-05-20T10:06:38.690Z,34.41
2023-05-20T10:07:42.395Z,34.39
2023-05-20T10:08:38.849Z,34.35
2023-05-20T10:09:38.701Z,34.37
2023-05-20T10:10:38.670Z,34.40
2023-05-20T10:11:38.669Z,34.40
2023-05-20T10:12:38.686Z,34.37
2023-05-20T10:13:38.676Z,34.37
2023-05-20T10:14:39.697Z,34.38
2023-05-20T10:15:38.701Z,34.39
2023-05-20T10:16:38.664Z,34.34
2023-05-20T10:17:38.687Z,34.37
2023-05-20T10:18:38.624Z,34.40
2023-05-20T10:19:38.635Z,34.38
2023-05-20T10:20:38.632Z,34.33
2023-05-20T10:21:38.570Z,34.37
2023-05-20T10:22:38.589Z,34.38
2023-05-20T10:23:38.596Z,34.38
2023-05-20T10:24:38.660Z,34.36
2023-05-20T10:25:38.554Z,34.38
2023-05-20T10:26:38.593Z,34.37
2023-05-20T10:27:38.585Z,34.41
2023-05-20T10:28:38.544Z,34.37
2023-05-20T10:29:38.524Z,34.39
2023-05-20T10:30:39.833Z,34.35
2023-05-20T10:31:38.536Z,34.37
2023-05-20T10:32:38.623Z,34.42
2023-05-20T10:33:38.524Z,34.33
2023-05-20T10:34:38.517Z,34.37
2023-05-20T10:35:38.532Z,34.37
2023-05-20T10:36:39.226Z,34.33
2023-05-20T10:37:38.549Z,34.34
2023-05-20T10:38:38.498Z,34.37
2023-05-20T10:39:38.440Z,34.32
2023-05-20T10:40:38.476Z,34.36
2023-05-20T10:41:38.478Z,34.34
2023-05-20T10:42:38.484Z,34.33
2023-05-20T10:43:38.460Z,34.35
2023-05-20T10:44:38.469Z,34.35
2023-05-20T10:45:38.530Z,34.35
2023-05-20T10:46:57.274Z,34.33
2023-05-20T10:47:39.604Z,34.33
2023-05-20T10:48:38.635Z,34.34
2023-05-20T10:49:38.516Z,34.27
2023-05-20T10:50:38.551Z,34.29
2023-05-20T10:51:38.536Z,34.31
2023-05-20T10:52:38.549Z,34.34
2023-05-20T10:53:38.546Z,34.29
2023-05-20T10:54:38.479Z,34.30
2023-05-20T10:55:38.510Z,34.33
2023-05-20T10:56:38.506Z,34.31
2023-05-20T10:57:38.472Z,34.30
2023-05-20T10:58:38.457Z,34.30
2023-05-20T10:59:38.435Z,34.34
2023-05-20T11:00:38.740Z,34.30
2023-05-20T11:01:38.654Z,34.31
2023-05-20T11:02:38.536Z,34.29
2023-05-20T11:03:38.602Z,34.34
2023-05-20T11:04:38.540Z,34.29
2023-05-20T11:05:38.620Z,34.28
2023-05-20T11:06:38.662Z,34.35
2023-05-20T11:07:38.671Z,34.33
2023-05-20T11:08:38.659Z,34.32
2023-05-20T11:09:38.717Z,34.31
2023-05-20T11:10:38.742Z,34.31
2023-05-20T11:11:38.774Z,34.31
2023-05-20T11:12:38.888Z,34.32
2023-05-20T11:13:38.876Z,34.33
2023-05-20T11:14:38.850Z,34.29
2023-05-20T11:15:38.968Z,34.33
2023-05-20T11:16:38.980Z,34.31
2023-05-20T11:17:38.968Z,34.34
2023-05-20T11:18:39.013Z,34.32
2023-05-20T11:19:39.053Z,34.33
2023-05-20T11:20:39.099Z,34.29
2023-05-20T11:21:39.099Z,34.32
2023-05-20T11:22:39.171Z,34.29
2023-05-20T11:23:40.613Z,34.28
2023-05-20T11:24:39.203Z,34.31
2023-05-20T11:25:39.258Z,34.29
2023-05-20T11:26:39.265Z,34.30
2023-05-20T11:27:39.267Z,34.31
2023-05-20T11:28:39.332Z,34.33
2023-05-20T11:29:39.365Z,34.31
2023-05-20T11:30:39.421Z,34.31
2023-05-20T11:31:39.503Z,34.33
2023-05-20T11:32:39.524Z,34.34
2023-05-20T11:33:39.556Z,34.30
2023-05-20T11:34:39.581Z,34.30
2023-05-20T11:35:39.608Z,34.28
2023-05-20T11:36:39.608Z,34.33
2023-05-20T11:37:39.614Z,34.31
2023-05-20T11:38:39.684Z,34.29
2023-05-20T11:39:39.708Z,34.33
2023-05-20T11:40:49.800Z,34.31
2023-05-20T11:41:40.782Z,34.31
2023-05-20T11:42:39.769Z,34.29
2023-05-20T11:43:39.770Z,34.33
2023-05-20T11:44:39.692Z,34.34
2023-05-20T11:45:39.723Z,34.34
2023-05-20T11:46:39.762Z,34.28
2023-05-20T11:47:39.718Z,34.29
2023-05-20T11:48:39.690Z,34.31
2023-05-20T11:49:39.703Z,34.31
2023-05-20T11:50:39.728Z,34.31
2023-05-20T11:51:39.679Z,34.33
2023-05-20T11:52:39.682Z,34.30
2023-05-20T11:53:39.690Z,34.25
2023-05-20T11:54:39.678Z,34.31
2023-05-20T11:55:39.698Z,34.31
2023-05-20T11:56:39.778Z,34.28
2023-05-20T11:57:39.781Z,34.30
2023-05-20T11:58:39.818Z,34.28
2023-05-20T11:59:39.874Z,34.30
2023-05-20T12:00:50.570Z,34.31
2023-05-20T12:01:40.884Z,34.31
2023-05-20T12:02:39.944Z,34.29
2023-05-20T12:03:39.995Z,34.29
2023-05-20T12:04:39.994Z,34.30
2023-05-20T12:05:39.873Z,34.31
2023-05-20T12:06:39.840Z,34.29
2023-05-20T12:07:39.829Z,34.29
2023-05-20T12:08:39.818Z,34.31
2023-05-20T12:09:39.846Z,34.30
2023-05-20T12:10:39.796Z,34.31
2023-05-20T12:11:39.805Z,34.29
2023-05-20T12:12:39.810Z,34.29
2023-05-20T12:13:39.780Z,34.28
2023-05-20T12:14:39.802Z,34.32
2023-05-20T12:15:39.825Z,34.30
2023-05-20T12:16:39.877Z,34.30
2023-05-20T12:17:39.884Z,34.31
2023-05-20T12:18:39.882Z,34.34
2023-05-20T12:19:41.793Z,34.30
2023-05-20T12:20:39.925Z,34.32
2023-05-20T12:21:39.985Z,34.33
2023-05-20T12:22:39.994Z,34.29
2023-05-20T12:23:40.059Z,34.30
2023-05-20T12:24:40.377Z,34.33
2023-05-20T12:25:40.111Z,34.32
2023-05-20T12:26:40.162Z,34.31
2023-05-20T12:27:40.170Z,34.28
2023-05-20T12:28:40.278Z,34.30
2023-05-20T12:29:40.311Z,34.28
2023-05-20T12:30:40.299Z,34.28
2023-05-20T12:31:40.376Z,34.32
2023-05-20T12:32:40.427Z,34.33
2023-05-20T12:33:40.384Z,34.33
2023-05-20T12:34:40.480Z,34.34
2023-05-20T12:35:40.482Z,34.34
2023-05-20T12:36:40.562Z,34.31
2023-05-20T12:37:40.546Z,34.33
2023-05-20T12:38:40.605Z,34.32
2023-05-20T12:39:40.886Z,34.31
2023-05-20T12:40:40.687Z,34.29
2023-05-20T12:41:40.758Z,34.34
2023-05-20T12:42:40.758Z,34.35
2023-05-20T12:43:40.837Z,34.34
2023-05-20T12:44:40.863Z,34.31
2023-05-20T12:45:40.850Z,34.36
2023-05-20T12:46:40.939Z,34.32
2023-05-20T12:47:40.947Z,34.31
2023-05-20T12:48:42.558Z,34.31
2023-05-20T12:49:41.045Z,34.29
2023-05-20T12:50:41.068Z,34.33
2023-05-20T12:51:41.118Z,34.29
2023-05-20T12:52:41.109Z,34.28